Time;durP1;ratioP1;P1;durP2;ratioP2;P2;SDS_P1;SDS_P2;PMS_P1;PMS_P2;Temp;Humidity;BMP_temperature;BMP_pressure;BME280_temperature;BME280_humidity;BME280_pressure;Samples;Min_cycle;Max_cycle;Signal;HPM_P1;HPM_P2
2021/04/09 00:01:39;;;;;;;3.90;1.40;;;9.50;99.90;;;;;;5011632;28;20036;-84
2021/04/09 00:04:05;;;;;;;5.32;1.25;;;9.50;99.90;;;;;;5011249;28;20026;-84
2021/04/09 00:06:30;;;;;;;5.25;1.85;;;9.40;99.90;;;;;;5010306;28;20033;-84
2021/04/09 00:08:56;;;;;;;2.72;1.15;;;9.50;99.90;;;;;;5011311;28;20144;-84
2021/04/09 00:11:22;;;;;;;4.07;1.20;;;9.50;99.90;;;;;;4994048;28;20113;-84
2021/04/09 00:13:47;;;;;;;5.57;1.40;;;9.40;99.90;;;;;;4994273;28;20164;-84
2021/04/09 00:16:13;;;;;;;4.50;1.38;;;9.50;99.90;;;;;;4994017;28;20057;-84
2021/04/09 00:18:39;;;;;;;5.38;1.60;;;9.60;99.90;;;;;;5011673;28;20036;-84
2021/04/09 00:21:05;;;;;;;3.50;1.17;;;9.40;99.90;;;;;;5007842;28;20026;-84
2021/04/09 00:23:30;;;;;;;6.70;1.50;;;9.40;99.90;;;;;;4993278;28;20108;-84
2021/04/09 00:25:56;;;;;;;4.63;1.73;;;9.40;99.90;;;;;;5010292;28;20117;-84
2021/04/09 00:28:22;;;;;;;4.40;1.50;;;9.30;99.90;;;;;;5011654;28;20032;-84
2021/04/09 00:30:47;;;;;;;7.10;1.67;;;9.70;99.90;;;;;;5009830;28;20030;-84
2021/04/09 00:33:13;;;;;;;4.47;1.50;;;9.50;99.90;;;;;;5011473;28;20041;-84
2021/04/09 00:35:39;;;;;;;5.75;2.13;;;9.40;99.90;;;;;;5008895;28;20038;-84
2021/04/09 00:38:04;;;;;;;5.75;1.63;;;9.40;99.90;;;;;;5010804;28;20048;-84
2021/04/09 00:40:30;;;;;;;5.22;1.77;;;9.20;99.90;;;;;;5011409;28;20018;-84
2021/04/09 00:42:56;;;;;;;7.32;1.67;;;9.20;99.90;;;;;;5009455;28;20383;-84
2021/04/09 00:45:22;;;;;;;4.53;1.58;;;9.10;99.90;;;;;;5010948;28;20050;-84
2021/04/09 00:47:48;;;;;;;2.63;1.35;;;9.10;99.90;;;;;;5010726;28;20061;-84
2021/04/09 00:50:15;;;;;;;5.07;1.55;;;9.10;99.90;;;;;;4992292;28;20049;-84
2021/04/09 00:52:43;;;;;;;4.68;1.75;;;9.10;99.90;;;;;;5010561;28;20486;-84
2021/04/09 00:55:10;;;;;;;5.25;1.52;;;9.20;99.90;;;;;;5010954;28;20022;-84
2021/04/09 00:57:36;;;;;;;5.22;2.63;;;9.00;99.90;;;;;;5010859;28;20056;-84
2021/04/09 01:00:07;;;;;;;5.70;1.60;;;9.20;99.90;;;;;;5010572;28;20026;-84
2021/04/09 01:02:33;;;;;;;7.47;1.75;;;9.00;99.90;;;;;;4993113;28;20502;-84
2021/04/09 01:04:59;;;;;;;6.28;1.70;;;9.00;99.90;;;;;;5008046;28;20049;-84
2021/04/09 01:07:25;;;;;;;6.00;1.73;;;9.20;99.90;;;;;;5010140;28;20515;-84
2021/04/09 01:09:53;;;;;;;4.85;1.73;;;9.20;99.90;;;;;;4993155;28;20044;-84
2021/04/09 01:12:19;;;;;;;4.43;1.70;;;9.40;99.90;;;;;;4993031;28;20425;-84
2021/04/09 01:14:45;;;;;;;6.20;1.70;;;9.30;99.90;;;;;;4993205;28;20113;-84
2021/04/09 01:17:25;;;;;;;6.28;1.92;;;9.10;99.90;;;;;;5010518;28;20057;-84
2021/04/09 01:20:27;;;;;;;5.53;2.30;;;9.10;99.90;;;;;;4991157;28;20048;-84
2021/04/09 01:23:31;;;;;;;6.25;2.40;;;8.90;99.90;;;;;;5010453;28;20020;-84
2021/04/09 01:26:21;;;;;;;7.38;1.90;;;8.90;99.90;;;;;;4992698;28;20624;-84
2021/04/09 01:29:13;;;;;;;6.85;1.80;;;8.90;99.90;;;;;;5010341;28;20029;-84
2021/04/09 01:31:56;;;;;;;8.25;2.00;;;8.80;99.90;;;;;;5009879;28;20029;-84
2021/04/09 01:34:24;;;;;;;9.25;1.80;;;8.80;99.90;;;;;;5008786;28;20018;-84
2021/04/09 01:36:56;;;;;;;5.35;1.92;;;9.20;99.90;;;;;;5009559;28;20531;-84
2021/04/09 01:39:41;;;;;;;7.05;1.80;;;8.80;99.90;;;;;;5010324;28;20125;-84
2021/04/09 01:42:10;;;;;;;6.32;2.10;;;8.80;99.90;;;;;;5010034;28;20049;-84
2021/04/09 01:44:40;;;;;;;5.20;1.85;;;8.80;99.90;;;;;;4992548;28;20014;-84
2021/04/09 01:47:07;;;;;;;7.63;1.90;;;9.20;99.90;;;;;;4992748;28;20030;-84
2021/04/09 01:49:34;;;;;;;5.32;1.67;;;8.80;99.90;;;;;;5009127;28;20022;-83
2021/04/09 01:52:02;;;;;;;5.93;2.03;;;8.70;99.90;;;;;;5010430;28;20026;-84
2021/04/09 01:54:30;;;;;;;8.93;1.83;;;8.80;99.90;;;;;;5010104;28;20379;-84
2021/04/09 01:56:57;;;;;;;6.05;1.83;;;9.10;99.90;;;;;;5009795;28;20069;-84
2021/04/09 01:59:23;;;;;;;5.15;1.90;;;9.10;99.90;;;;;;5009913;28;20025;-84
2021/04/09 02:01:50;;;;;;;6.10;2.28;;;9.10;99.90;;;;;;5010044;28;20402;-84
2021/04/09 02:04:17;;;;;;;8.60;1.70;;;9.00;99.90;;;;;;5007298;28;20493;-84
2021/04/09 02:06:44;;;;;;;5.43;1.92;;;8.90;99.90;;;;;;5010035;28;20030;-84
2021/04/09 02:09:12;;;;;;;6.07;2.05;;;8.80;99.90;;;;;;5009555;28;20558;-83
2021/04/09 02:11:39;;;;;;;9.05;2.03;;;9.00;99.90;;;;;;5010217;28;20066;-84
2021/04/09 02:14:09;;;;;;;3.67;1.73;;;8.90;99.90;;;;;;5012554;28;20061;-84
2021/04/09 02:16:36;;;;;;;6.25;1.83;;;9.10;99.90;;;;;;5014042;28;20386;-84
2021/04/09 02:19:03;;;;;;;6.80;2.13;;;8.80;99.90;;;;;;5012258;28;20025;-84
2021/04/09 02:21:32;;;;;;;7.40;1.65;;;8.90;99.90;;;;;;5004149;28;20071;-84
2021/04/09 02:23:59;;;;;;;5.57;2.40;;;8.90;99.90;;;;;;5013972;28;20018;-84
2021/04/09 02:26:26;;;;;;;4.57;2.08;;;8.90;99.90;;;;;;4995868;28;20025;-84
2021/04/09 02:28:52;;;;;;;6.97;1.90;;;9.20;99.90;;;;;;5013488;28;20035;-84
2021/04/09 02:31:18;;;;;;;6.95;2.00;;;9.20;99.90;;;;;;5013252;28;20406;-84
2021/04/09 02:33:44;;;;;;;7.45;1.85;;;9.10;99.90;;;;;;5011785;28;20026;-84
2021/04/09 02:36:21;;;;;;;7.43;1.73;;;8.90;99.90;;;;;;5013566;28;20119;-84
2021/04/09 02:38:53;;;;;;;4.97;1.50;;;8.80;99.90;;;;;;4995654;28;20029;-83
2021/04/09 02:41:21;;;;;;;7.95;1.80;;;8.90;99.90;;;;;;5013530;28;20028;-84
2021/04/09 02:43:47;;;;;;;4.53;1.50;;;8.90;99.90;;;;;;4995865;28;20014;-84
2021/04/09 02:46:41;;;;;;;6.07;2.03;;;9.20;99.90;;;;;;4995449;28;20390;-83
2021/04/09 02:49:12;;;;;;;9.30;1.63;;;9.00;99.90;;;;;;5010807;28;20116;-84
2021/04/09 02:51:42;;;;;;;9.00;1.90;;;9.10;99.90;;;;;;5013414;28;20034;-84
2021/04/09 02:54:13;;;;;;;7.47;1.65;;;9.20;99.90;;;;;;5013153;28;20022;-84
2021/04/09 02:56:40;;;;;;;4.47;1.33;;;9.00;99.90;;;;;;5013318;28;20116;-84
2021/04/09 02:59:10;;;;;;;4.72;1.60;;;8.90;99.90;;;;;;4995523;28;20363;-83
2021/04/09 03:01:37;;;;;;;3.95;1.50;;;8.90;99.90;;;;;;5012878;28;20017;-84
2021/04/09 03:04:04;;;;;;;7.93;1.60;;;8.90;99.90;;;;;;5010745;28;20312;-84
2021/04/09 03:06:29;;;;;;;4.45;1.50;;;8.90;99.90;;;;;;5013117;28;20018;-84
2021/04/09 03:08:55;;;;;;;4.75;1.67;;;9.30;99.90;;;;;;4995356;28;20022;-84
2021/04/09 03:11:22;;;;;;;5.75;1.65;;;9.00;99.90;;;;;;5013046;28;20050;-84
2021/04/09 03:13:48;;;;;;;7.90;2.05;;;9.00;99.90;;;;;;5012944;28;20010;-84
2021/04/09 03:16:18;;;;;;;4.10;1.60;;;8.90;99.90;;;;;;5013011;28;20438;-84
2021/04/09 03:18:44;;;;;;;5.22;1.85;;;9.10;99.90;;;;;;5011435;28;20041;-84
2021/04/09 03:21:10;;;;;;;5.95;1.50;;;8.90;99.90;;;;;;5013048;28;20029;-84
2021/04/09 03:23:36;;;;;;;6.20;1.48;;;9.10;99.90;;;;;;5012460;28;20026;-84
2021/04/09 03:26:01;;;;;;;4.85;1.67;;;9.10;99.90;;;;;;4994942;28;20025;-84
2021/04/09 03:28:27;;;;;;;5.18;1.70;;;9.00;99.90;;;;;;4995063;28;20026;-84
2021/04/09 03:30:53;;;;;;;3.70;1.60;;;9.10;99.90;;;;;;5012743;28;20084;-84
2021/04/09 03:33:20;;;;;;;7.53;1.70;;;9.20;99.90;;;;;;5009779;28;20029;-84
2021/04/09 03:35:46;;;;;;;5.75;1.60;;;9.20;99.90;;;;;;5012659;28;20100;-84
2021/04/09 03:38:13;;;;;;;3.05;1.65;;;9.00;99.90;;;;;;5012325;28;20030;-84
2021/04/09 03:40:39;;;;;;;6.45;1.63;;;8.90;99.90;;;;;;5012549;28;20389;-83
2021/04/09 03:43:05;;;;;;;6.72;1.83;;;9.00;99.90;;;;;;5012162;28;20018;-84
2021/04/09 03:45:31;;;;;;;7.97;1.70;;;9.00;99.90;;;;;;5011793;28;20034;-84
2021/04/09 03:47:56;;;;;;;3.38;1.60;;;9.20;99.90;;;;;;5010972;28;20075;-84
2021/04/09 03:50:22;;;;;;;6.53;2.20;;;9.00;99.90;;;;;;5012273;28;20394;-84
2021/04/09 03:52:48;;;;;;;2.90;1.50;;;9.10;99.90;;;;;;4994547;28;20045;-84
2021/04/09 03:55:14;;;;;;;6.45;1.85;;;9.10;99.90;;;;;;4994555;28;20509;-84
2021/04/09 03:57:40;;;;;;;4.28;1.80;;;9.10;99.90;;;;;;5012035;28;20030;-84
2021/04/09 04:00:06;;;;;;;6.13;1.60;;;9.00;99.90;;;;;;5011771;28;20029;-84
2021/04/09 04:02:32;;;;;;;6.57;1.52;;;9.00;99.90;;;;;;5009898;28;20099;-84
2021/04/09 04:04:58;;;;;;;4.07;1.67;;;8.90;99.90;;;;;;5011635;28;20409;-84
2021/04/09 04:07:23;;;;;;;7.20;1.60;;;9.10;99.90;;;;;;4994365;28;20022;-83
2021/04/09 04:09:49;;;;;;;6.13;1.45;;;9.00;99.90;;;;;;5012015;28;20445;-84
2021/04/09 04:12:15;;;;;;;4.35;1.50;;;9.10;99.90;;;;;;5011343;28;20026;-84
2021/04/09 04:14:40;;;;;;;3.55;1.65;;;9.30;99.90;;;;;;5011221;28;20398;-84
2021/04/09 04:17:06;;;;;;;4.63;1.50;;;8.90;99.90;;;;;;4993007;28;20394;-84
2021/04/09 04:19:32;;;;;;;4.95;1.63;;;9.00;99.90;;;;;;5011567;28;20029;-84
2021/04/09 04:21:57;;;;;;;13.07;2.55;;;9.30;99.90;;;;;;5009842;28;20036;-83
2021/04/09 04:24:23;;;;;;;5.53;1.85;;;8.90;99.90;;;;;;5009946;28;20064;-84
2021/04/09 04:26:48;;;;;;;6.35;1.70;;;9.00;99.90;;;;;;5011230;28;20137;-84
2021/04/09 04:29:14;;;;;;;7.65;1.90;;;9.10;99.90;;;;;;5011187;28;20034;-84
2021/04/09 04:31:40;;;;;;;3.40;1.70;;;9.00;99.90;;;;;;5009466;28;20037;-84
2021/04/09 04:34:06;;;;;;;2.75;1.48;;;9.00;99.90;;;;;;5011558;28;20101;-84
2021/04/09 04:36:32;;;;;;;3.10;1.67;;;9.00;99.90;;;;;;4993035;28;20120;-84
2021/04/09 04:38:58;;;;;;;8.45;1.67;;;9.10;99.90;;;;;;5011365;28;20092;-84
2021/04/09 04:41:23;;;;;;;6.28;1.70;;;9.00;99.90;;;;;;5008715;28;20390;-84
2021/04/09 04:43:49;;;;;;;6.30;1.77;;;9.00;99.90;;;;;;5010975;28;21156;-84
2021/04/09 04:46:15;;;;;;;7.32;1.70;;;9.20;99.90;;;;;;5010921;28;20018;-84
2021/04/09 04:48:41;;;;;;;5.97;1.75;;;9.00;99.90;;;;;;4993510;28;20049;-84
2021/04/09 04:51:06;;;;;;;6.70;1.80;;;9.00;99.90;;;;;;5011256;28;20080;-84
2021/04/09 04:53:32;;;;;;;5.07;1.92;;;9.00;99.90;;;;;;5011063;28;20030;-84
2021/04/09 04:55:58;;;;;;;3.53;1.40;;;9.00;99.90;;;;;;5009716;28;20034;-84
2021/04/09 04:58:24;;;;;;;6.20;1.90;;;9.40;99.90;;;;;;5010509;28;20038;-84
2021/04/09 05:00:49;;;;;;;5.10;1.55;;;9.10;99.90;;;;;;5010956;28;20029;-84
2021/04/09 05:03:15;;;;;;;4.32;1.60;;;9.00;99.90;;;;;;4991324;28;20045;-84
2021/04/09 05:05:41;;;;;;;6.50;1.90;;;9.10;99.90;;;;;;5010488;28;20025;-84
2021/04/09 05:08:06;;;;;;;7.97;2.05;;;9.20;99.90;;;;;;5009232;28;20036;-84
2021/04/09 05:10:32;;;;;;;3.10;1.55;;;9.00;99.90;;;;;;5010989;28;20397;-84
2021/04/09 05:12:58;;;;;;;6.63;1.90;;;9.30;99.90;;;;;;5010440;28;20026;-84
2021/04/09 05:15:23;;;;;;;3.55;1.85;;;9.10;99.90;;;;;;5010675;28;20021;-84
2021/04/09 05:17:49;;;;;;;5.55;2.05;;;8.90;99.90;;;;;;5009167;28;20026;-83
2021/04/09 05:20:15;;;;;;;7.32;2.05;;;9.10;99.90;;;;;;5010584;28;20053;-84
2021/04/09 05:22:41;;;;;;;3.83;1.50;;;9.00;99.90;;;;;;5010270;28;20103;-84
2021/04/09 05:25:07;;;;;;;4.03;1.50;;;9.30;99.90;;;;;;5010396;28;20141;-84
2021/04/09 05:27:32;;;;;;;3.40;1.73;;;9.10;99.90;;;;;;4993435;28;20025;-85
2021/04/09 05:30:01;;;;;;;7.93;1.75;;;9.10;99.90;;;;;;4996783;28;20029;-83
2021/04/09 05:32:27;;;;;;;3.38;1.70;;;9.10;99.90;;;;;;5011682;28;20061;-84
2021/04/09 05:34:54;;;;;;;6.70;1.65;;;9.20;99.90;;;;;;4992299;28;20053;-84
2021/04/09 05:37:20;;;;;;;11.88;2.70;;;9.20;99.90;;;;;;5009990;28;20033;-84
2021/04/09 05:39:45;;;;;;;4.32;1.70;;;9.30;99.90;;;;;;5008928;28;20029;-84
2021/04/09 05:42:11;;;;;;;4.53;2.20;;;9.30;99.90;;;;;;4991595;28;20109;-84
2021/04/09 05:44:37;;;;;;;5.28;1.60;;;9.30;99.90;;;;;;4991859;28;20029;-84
2021/04/09 05:47:04;;;;;;;5.70;1.92;;;9.80;99.90;;;;;;5008398;28;20143;-84
2021/04/09 05:49:31;;;;;;;4.68;1.85;;;9.50;99.90;;;;;;4991965;28;20021;-84
2021/04/09 05:51:57;;;;;;;4.80;1.90;;;9.50;99.90;;;;;;5009355;28;20092;-84
2021/04/09 05:54:22;;;;;;;4.22;1.98;;;9.50;99.90;;;;;;5009551;28;20029;-85
2021/04/09 05:56:48;;;;;;;7.90;2.20;;;9.80;99.90;;;;;;5009488;28;20034;-85
2021/04/09 05:59:14;;;;;;;5.38;2.10;;;9.60;99.90;;;;;;5009531;28;20036;-85
2021/04/09 06:01:40;;;;;;;5.03;1.75;;;9.80;99.90;;;;;;5007939;28;20037;-85
2021/04/09 06:04:06;;;;;;;7.78;2.88;;;9.60;99.90;;;;;;5009150;28;20034;-85
2021/04/09 06:06:31;;;;;;;6.22;2.08;;;9.70;99.90;;;;;;4992440;28;20029;-84
2021/04/09 06:08:57;;;;;;;5.15;2.05;;;9.80;99.90;;;;;;5009102;28;20065;-84
2021/04/09 06:11:23;;;;;;;5.32;2.00;;;9.90;99.90;;;;;;4992178;28;20038;-85
2021/04/09 06:13:50;;;;;;;3.25;1.60;;;9.90;99.90;;;;;;5011729;28;20041;-85
2021/04/09 06:16:16;;;;;;;5.65;1.95;;;9.80;99.90;;;;;;5011713;28;20026;-85
2021/04/09 06:18:42;;;;;;;5.38;2.00;;;9.80;99.90;;;;;;5009632;28;20030;-85
2021/04/09 06:21:07;;;;;;;7.43;1.80;;;9.80;99.90;;;;;;4991562;28;20021;-85
2021/04/09 06:23:33;;;;;;;4.35;2.53;;;9.90;99.90;;;;;;5010364;28;20019;-85
2021/04/09 06:25:58;;;;;;;5.70;1.90;;;10.00;99.90;;;;;;5012044;28;20026;-87
2021/04/09 06:28:24;;;;;;;5.55;1.70;;;10.00;99.90;;;;;;5011715;28;20022;-90
2021/04/09 06:30:50;;;;;;;5.45;1.85;;;9.90;99.90;;;;;;4990394;28;20512;-87
2021/04/09 06:33:15;;;;;;;6.57;2.00;;;9.80;99.90;;;;;;5009372;28;20528;-86
2021/04/09 06:35:41;;;;;;;6.57;1.77;;;9.80;99.90;;;;;;5009265;28;20014;-87
2021/04/09 06:38:07;;;;;;;3.08;1.58;;;9.80;99.90;;;;;;4991377;28;20045;-86
2021/04/09 06:40:33;;;;;;;5.50;1.85;;;9.80;99.90;;;;;;5008956;28;20117;-86
2021/04/09 06:43:00;;;;;;;5.70;1.80;;;9.80;99.90;;;;;;4991134;28;20038;-87
2021/04/09 06:45:27;;;;;;;7.85;1.85;;;9.80;99.90;;;;;;5007704;28;20443;-87
2021/04/09 07:32:32;;;;;;;3.25;1.13;;;11.60;99.90;;;;;;5223672;23;20444;-86
2021/04/09 07:35:06;;;;;;;7.97;1.55;;;11.50;99.90;;;;;;4950553;28;20031;-86
2021/04/09 07:37:52;;;;;;;5.43;1.23;;;11.60;99.90;;;;;;4956405;29;20054;-86
2021/04/09 07:45:28;;;;;;;3.05;1.40;;;11.90;99.90;;;;;;4903643;23;1365911;-86
2021/04/09 07:48:02;;;;;;;5.30;1.33;;;11.70;99.90;;;;;;4889133;29;20583;-85
2021/04/09 07:50:32;;;;;;;7.00;1.55;;;11.80;99.90;;;;;;4896953;29;20084;-85
2021/04/09 07:52:58;;;;;;;4.38;1.50;;;12.20;99.90;;;;;;4899071;29;20104;-88
2021/04/09 07:55:26;;;;;;;2.60;1.30;;;12.20;99.90;;;;;;4895654;29;20036;-84
2021/04/09 07:57:51;;;;;;;3.97;1.05;;;11.80;99.90;;;;;;4899199;29;20107;-85
2021/04/09 08:00:26;;;;;;;4.68;1.30;;;11.90;99.90;;;;;;4896781;29;20180;-87
2021/04/09 08:02:56;;;;;;;20.30;2.10;;;12.10;99.90;;;;;;4897503;29;20029;-85
2021/04/09 08:05:26;;;;;;;4.95;1.50;;;12.00;99.90;;;;;;4897690;29;20036;-87
2021/04/09 08:07:52;;;;;;;4.22;1.23;;;12.10;99.90;;;;;;4893611;29;20033;-85
2021/04/09 08:10:26;;;;;;;9.70;1.70;;;12.00;99.90;;;;;;4879943;29;20486;-86
2021/04/09 08:12:55;;;;;;;6.25;1.30;;;11.90;99.90;;;;;;4898459;29;20025;-82
2021/04/09 08:15:42;;;;;;;7.22;1.50;;;12.00;99.90;;;;;;4893983;29;20025;-84
2021/04/09 08:18:09;;;;;;;3.13;1.33;;;12.00;99.90;;;;;;4892625;29;20052;-85
2021/04/09 08:20:36;;;;;;;6.03;1.60;;;11.90;99.90;;;;;;4901092;29;20434;-95
2021/04/09 08:23:07;;;;;;;5.65;1.60;;;12.00;99.90;;;;;;4896039;29;20125;-93
2021/04/09 08:25:34;;;;;;;5.43;1.60;;;12.20;99.90;;;;;;4882029;29;20033;-90
2021/04/09 08:28:00;;;;;;;5.93;1.65;;;11.90;99.90;;;;;;4882027;29;20104;-95
2021/04/09 08:30:28;;;;;;;4.97;1.70;;;12.10;99.90;;;;;;4880085;29;20037;-95
2021/04/09 08:32:55;;;;;;;5.20;1.63;;;12.20;99.90;;;;;;4881987;29;20033;-96
2021/04/09 08:35:22;;;;;;;4.50;1.42;;;12.10;99.90;;;;;;4902454;29;20036;-92
2021/04/09 08:37:49;;;;;;;4.53;1.88;;;12.20;99.90;;;;;;4901181;29;20501;-93
2021/04/09 08:40:16;;;;;;;2.67;1.27;;;12.50;99.90;;;;;;4897226;29;20139;-96
2021/04/09 08:42:43;;;;;;;4.82;1.40;;;12.40;99.90;;;;;;4897759;29;20041;-95
2021/04/09 08:45:10;;;;;;;6.43;1.45;;;12.30;99.90;;;;;;4898063;29;20505;-95
2021/04/09 08:47:37;;;;;;;5.43;1.60;;;12.40;99.90;;;;;;4901268;29;20036;-91
2021/04/09 08:50:14;;;;;;;2.95;1.30;;;12.30;99.90;;;;;;4900333;29;20108;-96
2021/04/09 08:52:42;;;;;;;4.97;1.40;;;12.30;99.90;;;;;;4896699;29;20076;-93
2021/04/09 08:55:10;;;;;;;3.25;1.00;;;12.50;99.90;;;;;;4884944;29;20567;-90
2021/04/09 08:57:38;;;;;;;2.25;1.30;;;12.60;99.90;;;;;;4898414;29;20037;-91
2021/04/09 09:00:20;;;;;;;3.58;1.33;;;12.80;99.90;;;;;;4903070;29;20509;-92
2021/04/09 09:02:54;;;;;;;1.88;1.10;;;12.70;99.90;;;;;;4901342;29;20107;-90
2021/04/09 09:05:30;;;;;;;3.90;1.40;;;12.60;99.90;;;;;;4907925;29;20028;-91
2021/04/09 09:08:03;;;;;;;3.38;1.25;;;12.70;99.90;;;;;;4896620;29;20044;-93
2021/04/09 09:10:28;;;;;;;3.47;1.60;;;12.90;99.90;;;;;;4896282;29;20029;-94
2021/04/09 09:13:03;;;;;;;6.45;1.92;;;12.90;99.90;;;;;;4887146;29;20046;-94
2021/04/09 09:18:33;;;;;;;2.47;1.05;;;13.00;99.90;;;;;;4897904;29;20047;-91
2021/04/09 09:21:05;;;;;;;2.78;1.30;;;12.90;99.90;;;;;;4904597;29;20044;-95
2021/04/09 09:23:53;;;;;;;5.57;1.67;;;12.80;99.90;;;;;;4898877;29;20036;-94
2021/04/09 09:26:49;;;;;;;2.50;1.02;;;13.00;99.90;;;;;;4878950;29;20025;-91
2021/04/09 09:29:28;;;;;;;15.35;3.45;;;12.80;99.90;;;;;;4880539;29;20041;-92
2021/04/09 09:31:54;;;;;;;14.57;1.52;;;13.00;99.90;;;;;;4880052;29;20033;-90
2021/04/09 09:34:26;;;;;;;2.72;1.05;;;12.80;99.90;;;;;;4882416;29;20040;-94
2021/04/09 09:37:11;;;;;;;5.70;1.38;;;13.00;99.90;;;;;;4896983;29;20025;-93
2021/04/09 09:39:48;;;;;;;6.70;1.48;;;13.20;99.90;;;;;;4890698;29;20048;-95
2021/04/09 09:42:34;;;;;;;4.78;1.60;;;13.30;99.90;;;;;;4900828;29;20703;-92
2021/04/09 09:45:01;;;;;;;5.00;1.40;;;13.20;99.90;;;;;;4897050;29;20055;-92
2021/04/09 09:47:27;;;;;;;3.88;1.60;;;13.40;99.90;;;;;;4889929;29;20078;-91
2021/04/09 09:52:44;;;;;;;6.15;1.33;;;13.30;99.90;;;;;;4896032;29;20494;-94
2021/04/09 09:55:19;;;;;;;3.15;1.30;;;13.70;99.90;;;;;;4895594;29;20032;-93
2021/04/09 09:58:04;;;;;;;3.90;1.10;;;14.00;99.90;;;;;;4909368;29;20056;-94
2021/04/09 10:00:35;;;;;;;4.40;1.50;;;14.10;99.90;;;;;;4900881;29;20049;-94
2021/04/09 10:03:17;;;;;;;6.68;1.45;;;13.90;99.90;;;;;;4899319;29;20477;-94
2021/04/09 10:05:52;;;;;;;3.30;1.40;;;14.10;99.90;;;;;;4890795;29;20040;-94
2021/04/09 10:08:19;;;;;;;3.75;1.50;;;14.60;99.90;;;;;;4895471;29;20470;-94
2021/04/09 10:10:45;;;;;;;3.40;1.17;;;15.60;99.90;;;;;;4896071;29;20103;-93
2021/04/09 10:13:18;;;;;;;2.95;1.10;;;18.50;99.90;;;;;;4898322;29;20118;-96
2021/04/09 10:15:45;;;;;;;5.38;1.50;;;19.60;99.90;;;;;;4895824;29;20039;-92
2021/04/09 10:18:11;;;;;;;4.80;1.20;;;20.60;99.90;;;;;;4896053;29;20029;-95
2021/04/09 10:20:37;;;;;;;8.63;1.10;;;22.20;99.90;;;;;;4895902;29;20048;-92
2021/04/09 10:23:04;;;;;;;4.03;1.25;;;22.30;99.90;;;;;;4895850;29;20025;-90
2021/04/09 10:25:31;;;;;;;5.82;1.20;;;21.30;99.90;;;;;;4894151;29;20104;-94
2021/04/09 10:27:57;;;;;;;4.70;1.48;;;21.50;99.90;;;;;;5139686;23;20026;-96
2021/04/09 10:30:31;;;;;;;4.35;1.00;;;22.20;99.90;;;;;;4954050;28;20416;-87
2021/04/09 10:32:57;;;;;;;3.00;1.25;;;21.50;99.90;;;;;;4955570;28;20514;-96
2021/04/09 10:35:24;;;;;;;3.42;1.17;;;22.80;99.90;;;;;;4959086;28;20039;-94
2021/04/09 10:37:51;;;;;;;6.05;1.50;;;23.40;99.90;;;;;;4961373;29;20031;-95
2021/04/09 10:40:17;;;;;;;7.88;1.45;;;22.40;99.90;;;;;;4959961;28;20035;-95
2021/04/09 10:42:58;;;;;;;5.93;1.20;;;22.00;99.90;;;;;;4962991;28;20031;-96
2021/04/09 10:45:24;;;;;;;3.15;1.10;;;22.90;99.90;;;;;;4946463;29;20062;-92
2021/04/09 10:47:53;;;;;;;4.32;1.10;;;23.90;99.90;;;;;;4952430;29;20031;-95
2021/04/09 10:50:20;;;;;;;7.97;1.75;;;24.10;99.90;;;;;;4961755;28;20114;-96
2021/04/09 10:52:46;;;;;;;6.53;1.30;;;23.60;99.90;;;;;;4954130;28;20043;-90
2021/04/09 10:55:12;;;;;;;5.03;1.27;;;22.70;99.90;;;;;;4952428;29;20027;-93
2021/04/09 10:57:38;;;;;;;4.00;1.40;;;23.30;99.90;;;;;;4955729;28;20032;-93
2021/04/09 11:00:05;;;;;;;5.68;1.45;;;24.10;99.90;;;;;;4957078;28;20042;-93
2021/04/09 11:02:35;;;;;;;6.25;1.35;;;22.20;99.90;;;;;;4956774;28;20052;-91
2021/04/09 11:05:01;;;;;;;6.97;1.25;;;22.00;99.90;;;;;;4955350;28;20031;-96
2021/04/09 11:07:43;;;;;;;3.20;0.98;;;24.00;99.90;;;;;;4954651;29;20531;-95
2021/04/09 11:10:28;;;;;;;5.47;1.23;;;23.10;99.90;;;;;;4953348;29;20023;-94
2021/04/09 11:12:54;;;;;;;2.85;0.90;;;22.30;99.90;;;;;;4958141;28;20038;-95
2021/04/09 11:15:20;;;;;;;3.33;1.23;;;21.50;99.90;;;;;;4954864;29;20035;-96
2021/04/09 11:17:58;;;;;;;7.43;1.45;;;22.10;99.90;;;;;;4955344;29;20035;-94
2021/04/09 11:20:29;;;;;;;3.67;1.50;;;22.00;99.90;;;;;;4955788;28;20563;-95
2021/04/09 11:23:04;;;;;;;3.63;1.15;;;21.80;99.90;;;;;;4951116;28;20381;-95
2021/04/09 11:25:37;;;;;;;7.82;1.27;;;22.40;99.90;;;;;;4956152;29;20030;-95
2021/04/09 11:28:07;;;;;;;6.25;1.58;;;22.00;99.90;;;;;;4954198;29;20027;-95
2021/04/09 11:30:35;;;;;;;3.40;1.00;;;22.60;99.90;;;;;;4956350;29;20067;-96
2021/04/09 11:33:02;;;;;;;4.75;1.20;;;22.10;99.90;;;;;;4953157;29;20086;-95
2021/04/09 11:35:36;;;;;;;5.70;1.55;;;22.70;99.90;;;;;;4953750;29;20035;-95
2021/04/09 11:38:06;;;;;;;6.38;1.50;;;22.90;99.90;;;;;;4955432;28;20106;-95
2021/04/09 11:40:41;;;;;;;5.38;1.30;;;23.50;99.90;;;;;;4938516;29;20035;-95
2021/04/09 11:43:08;;;;;;;10.95;2.65;;;23.40;99.90;;;;;;4951886;28;20037;-95
2021/04/09 11:45:45;;;;;;;5.43;1.13;;;23.50;99.90;;;;;;4953959;28;20035;-95
2021/04/09 11:48:27;;;;;;;4.28;1.00;;;23.90;99.90;;;;;;4955458;28;20024;-95
2021/04/09 11:50:54;;;;;;;2.97;0.93;;;22.10;99.90;;;;;;4941779;29;20119;-96
2021/04/09 11:53:20;;;;;;;3.45;1.10;;;23.30;99.90;;;;;;4943877;29;20019;-95
2021/04/09 11:55:48;;;;;;;2.17;1.02;;;23.60;99.90;;;;;;4954437;29;20031;-95
2021/04/09 11:58:22;;;;;;;3.80;1.13;;;23.30;99.90;;;;;;4954475;28;20499;-94
2021/04/09 12:00:56;;;;;;;2.40;1.10;;;23.30;99.90;;;;;;4955511;29;20043;-95
2021/04/09 12:03:35;;;;;;;6.35;1.50;;;25.70;99.90;;;;;;4955221;28;20480;-94
2021/04/09 12:06:18;;;;;;;3.30;1.30;;;24.90;99.90;;;;;;4952393;29;20039;-95
2021/04/09 12:08:45;;;;;;;5.93;1.27;;;25.90;99.90;;;;;;4953968;29;20117;-95
2021/04/09 12:11:12;;;;;;;2.53;1.20;;;26.20;99.90;;;;;;4955077;28;20027;-96
2021/04/09 12:13:44;;;;;;;4.40;1.30;;;22.50;99.90;;;;;;4952988;29;20027;-95
2021/04/09 12:16:10;;;;;;;5.47;1.40;;;22.60;99.90;;;;;;4955165;28;20033;-95
2021/04/09 12:18:35;;;;;;;2.45;1.27;;;23.20;99.90;;;;;;4954434;29;20032;-95
2021/04/09 12:21:02;;;;;;;2.45;1.30;;;22.60;99.90;;;;;;4953551;29;20135;-94
2021/04/09 12:23:27;;;;;;;4.28;1.30;;;22.40;99.90;;;;;;4953107;29;20031;-95
2021/04/09 12:25:59;;;;;;;3.28;1.20;;;23.60;99.90;;;;;;4953946;29;20035;-94
2021/04/09 12:28:25;;;;;;;3.45;1.20;;;22.60;99.90;;;;;;4949958;28;20048;-95
2021/04/09 12:30:52;;;;;;;4.72;1.00;;;22.30;99.90;;;;;;4954798;29;20054;-95
2021/04/09 12:33:19;;;;;;;2.95;1.15;;;22.80;99.90;;;;;;4954567;28;20503;-96
2021/04/09 12:35:44;;;;;;;3.92;1.08;;;24.40;99.90;;;;;;4953083;29;20039;-94
2021/04/09 12:38:10;;;;;;;6.50;1.20;;;24.70;99.90;;;;;;4953704;29;20085;-94
2021/04/09 12:40:35;;;;;;;6.43;1.30;;;24.30;99.90;;;;;;4954491;28;20057;-95
2021/04/09 12:43:01;;;;;;;4.00;1.27;;;24.30;99.90;;;;;;4955900;28;20087;-95
2021/04/09 12:45:27;;;;;;;2.55;1.48;;;24.30;99.90;;;;;;4954781;28;20039;-95
2021/04/09 12:47:53;;;;;;;5.10;1.38;;;24.50;99.90;;;;;;4953268;29;20019;-95
2021/04/09 12:50:18;;;;;;;3.95;1.25;;;24.00;99.90;;;;;;4953873;28;20484;-94
2021/04/09 12:52:44;;;;;;;2.63;1.10;;;23.80;99.90;;;;;;4953589;29;20042;-95
2021/04/09 12:55:10;;;;;;;4.20;1.40;;;24.00;99.90;;;;;;4955552;28;20027;-95
2021/04/09 12:57:36;;;;;;;3.65;1.50;;;22.70;99.90;;;;;;4947449;28;20073;-95
2021/04/09 13:00:05;;;;;;;4.85;1.63;;;22.50;99.90;;;;;;4951857;29;20067;-95
2021/04/09 13:02:31;;;;;;;1.77;0.90;;;23.10;99.90;;;;;;4952975;28;20023;-96
2021/04/09 13:04:57;;;;;;;6.47;1.25;;;23.70;99.90;;;;;;4953387;28;20027;-94
2021/04/09 13:07:23;;;;;;;5.05;1.30;;;22.80;99.90;;;;;;4953601;28;20027;-95
2021/04/09 13:09:48;;;;;;;2.20;1.10;;;20.60;99.90;;;;;;4953474;29;20061;-94
2021/04/09 13:12:14;;;;;;;1.67;0.95;;;19.30;99.90;;;;;;4952818;28;20469;-94
2021/04/09 13:14:39;;;;;;;3.83;1.10;;;19.00;99.90;;;;;;4954687;28;20042;-95
2021/04/09 13:17:05;;;;;;;3.60;1.15;;;18.60;99.90;;;;;;4953337;28;20019;-95
2021/04/09 13:19:31;;;;;;;2.88;1.10;;;20.20;99.90;;;;;;4952432;28;20031;-94
2021/04/09 13:21:56;;;;;;;4.63;1.30;;;21.00;99.90;;;;;;4954323;29;20078;-95
2021/04/09 13:24:22;;;;;;;4.20;1.00;;;21.30;99.90;;;;;;4950565;29;20081;-96
2021/04/09 13:26:48;;;;;;;2.95;1.10;;;20.40;99.90;;;;;;4952642;28;20440;-94
2021/04/09 13:29:13;;;;;;;4.28;1.05;;;20.30;99.90;;;;;;4952509;28;20460;-95
2021/04/09 13:31:39;;;;;;;1.83;1.10;;;20.70;99.90;;;;;;4952653;29;20039;-95
2021/04/09 13:34:06;;;;;;;3.40;1.10;;;20.10;99.90;;;;;;4955260;28;20027;-95
2021/04/09 13:36:32;;;;;;;3.00;1.30;;;20.00;99.90;;;;;;4952470;29;20074;-95
2021/04/09 13:38:57;;;;;;;4.75;1.20;;;20.80;99.90;;;;;;4953374;28;20062;-95
2021/04/09 13:41:23;;;;;;;2.17;1.20;;;20.50;99.90;;;;;;4952531;28;20027;-95
2021/04/09 13:43:53;;;;;;;4.00;1.30;;;20.30;99.90;;;;;;4953557;28;20027;-94
2021/04/09 13:46:21;;;;;;;3.40;1.15;;;20.30;99.90;;;;;;4953922;28;20034;-95
2021/04/09 13:48:47;;;;;;;2.42;0.93;;;20.20;99.90;;;;;;4954212;28;20487;-94
2021/04/09 13:51:13;;;;;;;6.90;1.30;;;19.90;99.90;;;;;;4953134;28;20114;-95
2021/04/09 13:53:40;;;;;;;3.42;1.10;;;20.50;99.90;;;;;;4949896;29;20117;-95
2021/04/09 13:56:07;;;;;;;2.63;1.40;;;19.90;99.90;;;;;;4949486;28;20025;-95